SELZM ENAL-ENAL

Flight info

Callsign SELZM
Flight time 0h 21m
Altitude 2000
Route GJOSUND ASPOY SYKKYLVEN
Aircraft C172/L-SBGY/S

Departure

Time 2026-04-30 17:41
Airport Ålesund Airport (ENAL)

Arrival

Time 2026-04-30 18:02
Airport Ålesund Airport (ENAL)
Time Latitude Longitude Altitude Speed Heading
2026-04-30 17:39 62.43618 6.34728 2402 ft 111 kts 118°
2026-04-30 17:41 62.41966 6.45539 3717 ft 94 kts 118°
2026-04-30 17:42 62.41567 6.48283 4015 ft 96 kts 118°
2026-04-30 17:42 62.40955 6.52452 4425 ft 97 kts 118°
2026-04-30 17:43 62.40533 6.55237 4700 ft 98 kts 117°
2026-04-30 17:44 62.39799 6.59324 5097 ft 92 kts 144°
2026-04-30 17:44 62.38319 6.58619 5512 ft 79 kts 222°
2026-04-30 17:46 62.35988 6.54970 6053 ft 86 kts 213°
2026-04-30 17:47 62.33899 6.52152 6277 ft 90 kts 213°
2026-04-30 17:48 62.31759 6.49336 6501 ft 90 kts 213°
2026-04-30 17:48 62.31905 6.45697 6515 ft 115 kts 306°
2026-04-30 17:49 62.34342 6.41079 6137 ft 115 kts 309°
2026-04-30 17:50 62.36683 6.36440 5218 ft 113 kts 299°
2026-04-30 17:51 62.37769 6.32292 4539 ft 104 kts 274°
2026-04-30 17:52 62.38686 6.27991 3910 ft 116 kts 303°
2026-04-30 17:53 62.42119 6.23033 2915 ft 122 kts 328°
2026-04-30 17:54 62.45097 6.19965 2229 ft 115 kts 317°
2026-04-30 17:55 62.47361 6.15582 1656 ft 113 kts 318°
2026-04-30 17:56 62.50496 6.14217 1185 ft 112 kts 357°
2026-04-30 17:57 62.52789 6.14758 1038 ft 110 kts
2026-04-30 17:58 62.54990 6.15450 923 ft 105 kts
2026-04-30 17:59 62.56850 6.14799 349 ft 60 kts 245°
2026-04-30 18:00 62.56167 6.11610 95 ft 67 kts 243°
2026-04-30 18:00 62.56752 6.09580 732 ft 98 kts 26°
2026-04-30 18:01 62.57536 6.11965 896 ft 92 kts 89°
2026-04-30 18:02 62.56766 6.13968 359 ft 56 kts 220°
2026-04-30 18:02 62.56262 6.12042 62 ft 31 kts 246°
2026-04-30 18:03 62.56029 6.11511 71 ft 10 kts 240°
2026-04-30 18:04 62.55881 6.11097 72 ft 11 kts 218°
2026-04-30 18:05 62.55792 6.11003 70 ft 0 kts 60°
2026-04-30 19:30 62.55816 6.11037 71 ft 5 kts 14°
2026-04-30 19:30 62.55903 6.11168 71 ft 11 kts 62°
2026-04-30 19:31 62.56007 6.11418 71 ft 10 kts 12°
2026-04-30 19:31 62.56073 6.11364 71 ft 11 kts 334°
2026-04-30 19:31 62.55904 6.10422 108 ft 71 kts 244°
2026-04-30 19:32 62.55690 6.09415 312 ft 75 kts 245°
2026-04-30 19:32 62.55487 6.08377 544 ft 76 kts 251°
2026-04-30 19:32 62.55683 6.07316 783 ft 90 kts 320°
2026-04-30 19:32 62.56333 6.07355 992 ft 103 kts 27°
2026-04-30 19:33 62.56831 6.08482 1080 ft 107 kts 64°
2026-04-30 19:33 62.57209 6.09898 1157 ft 110 kts 65°
2026-04-30 19:33 62.57611 6.11351 1171 ft 118 kts 65°
2026-04-30 19:33 62.57977 6.12811 1060 ft 102 kts 69°
2026-04-30 19:34 62.58204 6.14142 912 ft 88 kts 100°
2026-04-30 19:34 62.57975 6.15134 757 ft 66 kts 162°
2026-04-30 19:34 62.57181 6.15062 422 ft 57 kts 213°
2026-04-30 19:35 62.56877 6.14521 293 ft 60 kts 230°
2026-04-30 19:35 62.56636 6.13744 213 ft 63 kts 242°
2026-04-30 19:35 62.56443 6.12897 122 ft 63 kts 245°
2026-04-30 19:35 62.56269 6.12082 62 ft 52 kts 242°
2026-04-30 19:36 62.56101 6.11335 143 ft 64 kts 245°
2026-04-30 19:36 62.55900 6.10419 358 ft 68 kts 241°
2026-04-30 19:36 62.55512 6.08618 880 ft 65 kts 239°
2026-04-30 19:37 62.55339 6.07713 1119 ft 66 kts 239°
2026-04-30 19:37 62.55183 6.06801 1358 ft 65 kts 239°
2026-04-30 19:37 62.55046 6.05878 1610 ft 64 kts 239°
2026-04-30 19:37 62.55059 6.04810 1712 ft 91 kts 275°
2026-04-30 19:38 62.55547 6.03632 1706 ft 120 kts 322°
2026-04-30 19:38 62.56414 6.03339 1749 ft 132 kts
2026-04-30 19:38 62.57217 6.04298 1752 ft 132 kts 53°
2026-04-30 19:38 62.57742 6.05881 1769 ft 129 kts 66°
2026-04-30 19:39 62.58188 6.07557 1776 ft 129 kts 68°
2026-04-30 19:39 62.58630 6.09246 1787 ft 129 kts 69°
2026-04-30 19:39 62.59077 6.10967 1763 ft 131 kts 69°
2026-04-30 19:39 62.59528 6.12676 1784 ft 131 kts 68°
2026-04-30 19:40 62.59964 6.14432 1788 ft 130 kts 72°
2026-04-30 19:40 62.60348 6.16189 1793 ft 131 kts 73°
2026-04-30 19:40 62.60733 6.17969 1832 ft 130 kts 73°
2026-04-30 19:40 62.61118 6.19750 1936 ft 129 kts 73°
2026-04-30 19:41 62.61496 6.21518 1943 ft 130 kts 73°
2026-04-30 19:41 62.61801 6.23329 1940 ft 121 kts 97°
2026-04-30 19:41 62.61587 6.24878 1938 ft 100 kts 144°
2026-04-30 19:41 62.61081 6.25832 1936 ft 95 kts 156°
2026-04-30 19:42 62.60539 6.26298 1844 ft 80 kts 192°
2026-04-30 19:42 62.60046 6.25769 1685 ft 82 kts 215°
2026-04-30 19:42 62.59594 6.24954 1523 ft 87 kts 218°
2026-04-30 19:42 62.59135 6.24081 1400 ft 87 kts 221°
2026-04-30 19:43 62.58748 6.23021 1249 ft 91 kts 233°
2026-04-30 19:43 62.58428 6.21831 1100 ft 89 kts 238°
2026-04-30 19:43 62.58171 6.20722 1010 ft 79 kts 239°
2026-04-30 19:44 62.57713 6.18657 801 ft 75 kts 241°
2026-04-30 19:44 62.57478 6.17592 613 ft 79 kts 242°
2026-04-30 19:44 62.57245 6.16524 493 ft 79 kts 243°
2026-04-30 19:44 62.57013 6.15461 385 ft 76 kts 244°
2026-04-30 19:45 62.56796 6.14470 281 ft 69 kts 244°
2026-04-30 19:45 62.56594 6.13565 182 ft 67 kts 244°
2026-04-30 19:45 62.56393 6.12657 90 ft 64 kts 245°
2026-04-30 19:45 62.56227 6.11897 65 ft 55 kts 243°
2026-04-30 19:46 62.55990 6.11032 195 ft 75 kts 211°
2026-04-30 19:46 62.55573 6.11601 465 ft 89 kts 107°
2026-04-30 19:46 62.55687 6.12818 556 ft 79 kts 58°
2026-04-30 19:46 62.56168 6.13119 354 ft 73 kts 321°
2026-04-30 19:47 62.56285 6.12222 117 ft 68 kts 251°
2026-04-30 19:47 62.56170 6.11638 71 ft 56 kts 244°
2026-04-30 19:47 62.55905 6.10452 204 ft 75 kts 243°
2026-04-30 19:47 62.55593 6.09389 295 ft 90 kts 230°
2026-04-30 19:48 62.55114 6.08616 531 ft 88 kts 197°
2026-04-30 19:48 62.54503 6.08535 753 ft 87 kts 184°
2026-04-30 19:48 62.53903 6.08584 982 ft 84 kts 183°
2026-04-30 19:48 62.53321 6.08645 1189 ft 82 kts 183°
2026-04-30 19:49 62.52741 6.08698 1342 ft 86 kts 184°
2026-04-30 19:49 62.51569 6.08682 1682 ft 82 kts 195°
2026-04-30 19:49 62.51038 6.08279 1826 ft 80 kts 201°
2026-04-30 19:50 62.50519 6.07790 1921 ft 82 kts 203°
2026-04-30 19:50 62.49985 6.07276 1988 ft 86 kts 203°
2026-04-30 19:50 62.49420 6.06722 2002 ft 91 kts 203°
2026-04-30 19:50 62.48828 6.06135 2001 ft 95 kts 204°
2026-04-30 19:51 62.48231 6.05532 2002 ft 95 kts 204°
2026-04-30 19:51 62.47626 6.04914 2001 ft 96 kts 204°
2026-04-30 19:51 62.47021 6.04303 2000 ft 95 kts 203°
2026-04-30 19:51 62.46392 6.03922 2001 ft 94 kts 191°
2026-04-30 19:52 62.45737 6.03763 2002 ft 95 kts 185°
2026-04-30 19:52 62.45066 6.03719 2000 ft 95 kts 181°
2026-04-30 19:52 62.44403 6.03800 2002 ft 95 kts 179°
2026-04-30 19:52 62.43738 6.03918 2002 ft 95 kts 179°
2026-04-30 19:53 62.43094 6.04238 1999 ft 97 kts 165°
2026-04-30 19:53 62.42479 6.04888 1997 ft 97 kts 159°
2026-04-30 19:53 62.41898 6.05584 1995 ft 95 kts 159°
2026-04-30 19:53 62.41320 6.06275 2002 ft 95 kts 159°
2026-04-30 19:54 62.40738 6.06976 2002 ft 95 kts 158°
2026-04-30 19:54 62.40154 6.07652 2002 ft 95 kts 158°
2026-04-30 19:54 62.39568 6.08308 2005 ft 96 kts 159°
2026-04-30 19:54 62.38968 6.08983 2005 ft 96 kts 158°
2026-04-30 19:55 62.38368 6.09644 2005 ft 96 kts 158°
2026-04-30 19:55 62.37769 6.10295 2005 ft 96 kts 159°
2026-04-30 19:55 62.37167 6.10957 2005 ft 97 kts 159°
2026-04-30 19:55 62.36551 6.11517 2001 ft 94 kts 171°
2026-04-30 19:56 62.35922 6.11812 2003 ft 93 kts 173°
2026-04-30 19:56 62.35289 6.12037 2001 ft 91 kts 185°
2026-04-30 19:56 62.34692 6.11654 2002 ft 89 kts 203°
2026-04-30 19:56 62.34173 6.10886 2003 ft 91 kts 217°
2026-04-30 19:57 62.33710 6.09971 2003 ft 92 kts 219°
2026-04-30 19:57 62.33232 6.09002 2003 ft 93 kts 219°
2026-04-30 19:57 62.32764 6.08050 2002 ft 93 kts 219°
2026-04-30 19:57 62.32294 6.07090 2001 ft 92 kts 218°
2026-04-30 19:58 62.31834 6.06137 2003 ft 91 kts 218°
2026-04-30 19:58 62.31374 6.05196 2003 ft 91 kts 219°
2026-04-30 19:58 62.30912 6.04261 2004 ft 92 kts 218°
2026-04-30 19:58 62.30439 6.03301 2006 ft 93 kts 219°
2026-04-30 19:59 62.29971 6.02341 2003 ft 93 kts 219°
2026-04-30 19:59 62.29509 6.01392 2002 ft 92 kts 218°
2026-04-30 19:59 62.28581 5.99468 2001 ft 92 kts 219°
2026-04-30 20:00 62.28120 5.98516 2003 ft 93 kts 218°
2026-04-30 20:00 62.27647 5.97535 2003 ft 94 kts 219°
2026-04-30 20:00 62.27171 5.96559 2000 ft 94 kts 219°
2026-04-30 20:00 62.26664 5.95697 1993 ft 92 kts 207°
2026-04-30 20:01 62.25394 5.95611 1861 ft 99 kts 163°
2026-04-30 20:01 62.24786 5.96320 1818 ft 101 kts 150°
2026-04-30 20:01 62.24258 5.97276 1744 ft 99 kts 144°
2026-04-30 20:02 62.23195 5.99220 1471 ft 94 kts 156°
2026-04-30 20:02 62.22623 5.99821 1433 ft 89 kts 165°
2026-04-30 20:03 62.21486 6.00966 1265 ft 96 kts 144°
2026-04-30 20:03 62.21096 6.02091 1227 ft 96 kts 120°
2026-04-30 20:03 62.20877 6.03440 1175 ft 94 kts 114°
2026-04-30 20:03 62.20668 6.04776 1166 ft 93 kts 114°
2026-04-30 20:04 62.20480 6.06050 1158 ft 87 kts 113°
2026-04-30 20:04 62.20316 6.07238 1134 ft 81 kts 114°
2026-04-30 20:04 62.20115 6.08374 1079 ft 81 kts 128°
2026-04-30 20:05 62.19324 6.09883 796 ft 72 kts 159°
2026-04-30 20:05 62.18874 6.09851 680 ft 69 kts 204°
2026-04-30 20:05 62.18257 6.08382 353 ft 65 kts 242°
2026-04-30 20:06 62.18045 6.07583 252 ft 54 kts 238°
2026-04-30 20:06 62.17966 6.07243 254 ft 5 kts 239°
2026-04-30 20:06 62.17959 6.07280 254 ft 6 kts 49°
2026-04-30 20:06 62.17990 6.07384 253 ft 10 kts 60°
2026-04-30 20:07 62.18033 6.07541 252 ft 13 kts 59°
2026-04-30 20:07 62.18083 6.07727 251 ft 15 kts 60°
2026-04-30 20:07 62.18049 6.07938 250 ft 3 kts 79°
2026-04-30 20:08 62.18061 6.07977 250 ft 0 kts 53°
2026-04-30 20:08 62.18063 6.07983 250 ft 0 kts 71°